This is the latest recevied weather packets stored in our database for station/object YO8SHU-10. If no packets are shown the sender has not sent any weather packets the latest 10 day(s).
| Time | Temp. | Humidity | Pressure | Rain* | Wind** | Luminosity | Snow |
|---|---|---|---|---|---|---|---|
| 1777507177 | 6.11° C | 85% | 1030.2 hPa | - | - | - | - |
| 1777498175 | 8.33° C | 55% | 1030 hPa | - | - | - | - |
| 1777490973 | 8.89° C | 54% | 1029.1 hPa | - | - | - | - |
| 1777489173 | 8.89° C | 49% | 1028.8 hPa | - | - | - | - |
| 1777487373 | 9.44° C | 47% | 1028.5 hPa | - | - | - | - |
| 1777483772 | 9.44° C | 44% | 1027.8 hPa | - | - | - | - |
| 1777480171 | 10.56° C | 39% | 1027 hPa | - | - | - | - |
| 1777478371 | 11.11° C | 38% | 1026.7 hPa | - | - | - | - |
| 1777476571 | 11.11° C | 35% | 1026.5 hPa | - | - | - | - |
| 1777472970 | 12.22° C | 34% | 1026.2 hPa | - | - | - | - |
| 1777471170 | 12.78° C | 33% | 1026.3 hPa | - | - | - | - |
| 1777469370 | 13.33° C | 33% | 1026 hPa | - | - | - | - |
| 1777467570 | 13.33° C | 35% | 1025.4 hPa | - | - | - | - |
| 1777465769 | 15° C | 33% | 1025.1 hPa | - | - | - | - |
| 1777463969 | 16.67° C | 32% | 1025.4 hPa | - | - | - | - |
| 1777462169 | 18.89° C | 32% | 1025.5 hPa | - | - | - | - |
| 1777460369 | 17.22° C | 40% | 1025.9 hPa | - | - | - | - |
| 1777458569 | 16.11° C | 37% | 1026.1 hPa | - | - | - | - |
| 1777456769 | 15.56° C | 38% | 1026.3 hPa | - | - | - | - |
| 1777454969 | 16.67° C | 35% | 1026.5 hPa | - | - | - | - |
| 1777453169 | 15° C | 41% | 1026.8 hPa | - | - | - | - |
| 1777451369 | 13.89° C | 39% | 1027 hPa | - | - | - | - |
| 1777449568 | 13.33° C | 41% | 1027.1 hPa | - | - | - | - |
| 1777447768 | 12.22° C | 45% | 1027.1 hPa | - | - | - | - |
| 1777445968 | 12.22° C | 45% | 1027 hPa | - | - | - | - |
* Rain since midnight (hover to see other rain measurements)
** Current wind speed in m/s (hover to see current wind gust speed)